Time,TemperatureF,DewpointF,PressureIn,WindDirection,WindDirectionDegrees,WindSpeedMPH,WindSpeedGustMPH,Humidity,HourlyPrecipIn,Conditions,Clouds,dailyrainin,SoftwareType,DateUTC
2013-05-01 00:00:00,55.0,47.6,29.43,ESE,112,0.0,0.0,76,0.00,RA,OVC,0.00,WeatherDisplay:10.37,2013-05-01 04:00:00,
2013-05-01 00:01:00,55.0,47.6,29.43,ESE,112,0.0,0.0,76,0.00,RA,OVC,0.00,WeatherDisplay:10.37,2013-05-01 04:01:00,
2013-05-01 00:06:00,55.0,46.9,29.43,ESE,112,0.0,0.0,74,0.00,RA,OVC,0.00,WeatherDisplay:10.37,2013-05-01 04:06:00,
2013-05-01 00:11:00,55.0,47.2,29.43,ESE,112,0.0,0.0,75,0.00,CLR,OVC,0.00,WeatherDisplay:10.37,2013-05-01 04:11:00,
2013-05-01 00:16:00,55.0,47.2,29.43,ESE,112,0.0,0.0,75,0.00,CLR,OVC,0.00,WeatherDisplay:10.37,2013-05-01 04:16:00,
2013-05-01 00:21:00,55.0,46.9,29.43,ESE,112,0.0,0.0,74,0.00,CLR,OVC,0.00,WeatherDisplay:10.37,2013-05-01 04:21:00,
2013-05-01 00:26:00,55.0,46.9,29.43,ESE,112,0.0,0.0,74,0.00,CLR,OVC,0.00,WeatherDisplay:10.37,2013-05-01 04:26:00,
2013-05-01 00:31:00,55.0,47.2,29.44,ESE,112,0.0,0.0,75,0.00,CLR,OVC,0.00,WeatherDisplay:10.37,2013-05-01 04:31:00,
2013-05-01 00:36:00,55.0,46.9,29.44,ESE,112,0.0,0.0,74,0.00,CLR,OVC,0.00,WeatherDisplay:10.37,2013-05-01 04:36:00,
2013-05-01 00:41:00,55.0,46.9,29.44,ESE,112,0.0,0.0,74,0.00,CLR,OVC,0.00,WeatherDisplay:10.37,2013-05-01 04:41:00,
2013-05-01 00:46:00,55.0,46.9,29.44,ESE,112,0.0,0.0,74,0.00,CLR,OVC,0.00,WeatherDisplay:10.37,2013-05-01 04:46:00,
2013-05-01 00:51:00,55.0,47.2,29.44,ESE,112,0.0,0.0,75,0.00,CLR,OVC,0.00,WeatherDisplay:10.37,2013-05-01 04:51:00,
2013-05-01 00:56:00,55.0,47.2,29.44,ESE,112,0.0,0.0,75,0.00,CLR,OVC,0.00,WeatherDisplay:10.37,2013-05-01 04:56:00,
2013-05-01 01:01:00,55.0,46.9,29.45,ESE,112,0.0,0.0,74,0.00,CLR,OVC,0.00,WeatherDisplay:10.37,2013-05-01 05:01:00,
2013-05-01 01:06:00,55.0,47.6,29.45,ESE,112,0.0,0.0,76,0.00,CLR,OVC,0.00,WeatherDisplay:10.37,2013-05-01 05:06:00,
2013-05-01 01:11:00,55.0,47.9,29.44,ESE,112,0.0,0.0,77,0.00,CLR,OVC,0.00,WeatherDisplay:10.37,2013-05-01 05:11:00,
2013-05-01 01:16:00,56.0,48.5,29.44,ESE,112,0.0,0.0,76,0.00,CLR,OVC,0.00,WeatherDisplay:10.37,2013-05-01 05:16:00,
2013-05-01 01:21:00,56.0,49.6,29.45,ESE,112,0.0,0.0,79,0.00,CLR,OVC,0.00,WeatherDisplay:10.37,2013-05-01 05:21:00,
2013-05-01 01:26:00,56.0,50.3,29.45,ESE,112,0.0,0.0,81,0.00,CLR,OVC,0.00,WeatherDisplay:10.37,2013-05-01 05:26:00,
2013-05-01 01:31:00,56.0,50.6,29.45,ESE,112,0.0,0.0,82,0.00,CLR,OVC,0.00,WeatherDisplay:10.37,2013-05-01 05:31:00,
2013-05-01 01:36:00,56.0,51.9,29.45,ESE,112,0.0,0.2,86,0.00,CLR,OVC,0.00,WeatherDisplay:10.37,2013-05-01 05:36:00,
2013-05-01 01:41:00,56.0,51.2,29.45,ESE,112,0.0,0.0,84,0.00,CLR,OVC,0.00,WeatherDisplay:10.37,2013-05-01 05:41:00,
2013-05-01 01:47:00,56.0,51.2,29.45,ENE,67,0.0,0.0,84,0.00,CLR,OVC,0.00,WeatherDisplay:10.37,2013-05-01 05:47:00,
2013-05-01 01:52:00,56.0,50.9,29.44,ENE,67,0.0,0.0,83,0.00,CLR,OVC,0.00,WeatherDisplay:10.37,2013-05-01 05:52:00,
2013-05-01 01:57:00,56.0,51.2,29.44,ENE,67,0.0,0.0,84,0.00,CLR,OVC,0.00,WeatherDisplay:10.37,2013-05-01 05:57:00,
2013-05-01 02:02:00,56.0,52.2,29.44,ENE,67,0.0,0.0,87,0.00,CLR,OVC,0.00,WeatherDisplay:10.37,2013-05-01 06:02:00,
2013-05-01 02:07:00,56.0,52.2,29.44,ESE,112,0.0,0.0,87,0.00,CLR,OVC,0.00,WeatherDisplay:10.37,2013-05-01 06:07:00,
2013-05-01 02:12:00,56.0,51.9,29.44,ENE,67,0.0,0.0,86,0.00,CLR,OVC,0.00,WeatherDisplay:10.37,2013-05-01 06:12:00,
2013-05-01 02:17:00,56.0,51.9,29.44,SE,135,3.0,3.0,86,0.00,CLR,OVC,0.00,WeatherDisplay:10.37,2013-05-01 06:17:00,
2013-05-01 02:22:00,56.0,52.2,29.43,ESE,112,1.0,1.0,87,0.00,CLR,OVC,0.00,WeatherDisplay:10.37,2013-05-01 06:22:00,
2013-05-01 02:27:00,56.0,51.9,29.43,ENE,67,2.3,2.3,86,0.00,CLR,OVC,0.00,WeatherDisplay:10.37,2013-05-01 06:27:00,
2013-05-01 02:32:00,56.0,51.2,29.43,ENE,67,1.2,0.0,84,0.00,CLR,OVC,0.00,WeatherDisplay:10.37,2013-05-01 06:32:00,
2013-05-01 02:37:00,56.0,50.9,29.43,ENE,67,1.2,0.0,83,0.00,CLR,OVC,0.00,WeatherDisplay:10.37,2013-05-01 06:37:00,
2013-05-01 02:42:00,56.0,50.3,29.43,East,90,0.0,0.0,81,0.00,CLR,OVC,0.00,WeatherDisplay:10.37,2013-05-01 06:42:00,
2013-05-01 02:47:00,55.0,49.3,29.43,North,360,0.0,0.0,81,0.00,CLR,OVC,0.00,WeatherDisplay:10.37,2013-05-01 06:47:00,
2013-05-01 02:52:00,55.0,49.3,29.43,ENE,67,0.0,0.0,81,0.00,CLR,OVC,0.00,WeatherDisplay:10.37,2013-05-01 06:52:00,
2013-05-01 02:57:00,55.0,48.9,29.43,ENE,67,1.2,1.2,80,0.00,CLR,OVC,0.00,WeatherDisplay:10.37,2013-05-01 06:57:00,
2013-05-01 03:02:00,55.0,49.3,29.43,ENE,67,0.0,0.0,81,0.00,CLR,OVC,0.00,WeatherDisplay:10.37,2013-05-01 07:02:00,
2013-05-01 03:07:00,56.0,49.9,29.43,East,90,1.2,1.2,80,0.00,CLR,OVC,0.00,WeatherDisplay:10.37,2013-05-01 07:07:00,
2013-05-01 03:12:00,56.0,50.3,29.43,SE,135,1.2,1.2,81,0.00,CLR,OVC,0.00,WeatherDisplay:10.37,2013-05-01 07:12:00,
2013-05-01 03:17:00,56.0,50.3,29.43,SE,135,0.0,0.0,81,0.00,CLR,OVC,0.00,WeatherDisplay:10.37,2013-05-01 07:17:00,
2013-05-01 03:22:00,56.0,50.3,29.43,SSE,157,3.5,3.5,81,0.00,CLR,OVC,0.00,WeatherDisplay:10.37,2013-05-01 07:22:00,
2013-05-01 03:27:00,56.0,50.3,29.43,ENE,67,0.0,0.0,81,0.00,CLR,OVC,0.00,WeatherDisplay:10.37,2013-05-01 07:27:00,
2013-05-01 03:32:00,56.0,50.3,29.43,ENE,67,0.0,0.0,81,0.00,CLR,OVC,0.00,WeatherDisplay:10.37,2013-05-01 07:32:00,
2013-05-01 03:37:00,56.0,49.9,29.43,ENE,67,0.0,0.0,80,0.00,CLR,OVC,0.00,WeatherDisplay:10.37,2013-05-01 07:37:00,
2013-05-01 03:42:00,56.0,49.2,29.44,ESE,112,0.0,0.0,78,0.00,CLR,OVC,0.00,WeatherDisplay:10.37,2013-05-01 07:42:00,
2013-05-01 03:47:00,55.0,48.3,29.44,ENE,67,0.0,0.0,78,0.00,CLR,OVC,0.00,WeatherDisplay:10.37,2013-05-01 07:47:00,
2013-05-01 03:52:00,55.0,48.3,29.44,ENE,67,0.0,0.0,78,0.00,CLR,OVC,0.00,WeatherDisplay:10.37,2013-05-01 07:52:00,
2013-05-01 03:57:00,55.0,48.3,29.44,ENE,67,0.0,0.0,78,0.00,CLR,OVC,0.00,WeatherDisplay:10.37,2013-05-01 07:57:00,
2013-05-01 04:02:00,55.0,47.6,29.43,ENE,67,0.0,0.0,76,0.00,CLR,OVC,0.00,WeatherDisplay:10.37,2013-05-01 08:02:00,
2013-05-01 04:07:00,55.0,47.6,29.43,ENE,67,0.0,0.0,76,0.00,CLR,OVC,0.00,WeatherDisplay:10.37,2013-05-01 08:07:00,
2013-05-01 04:12:00,55.0,47.6,29.43,East,90,0.0,0.0,76,0.00,CLR,OVC,0.00,WeatherDisplay:10.37,2013-05-01 08:12:00,
2013-05-01 04:17:00,55.0,47.2,29.43,East,90,0.0,0.0,75,0.00,CLR,OVC,0.00,WeatherDisplay:10.37,2013-05-01 08:17:00,
2013-05-01 04:22:00,55.0,47.2,29.44,ENE,67,0.0,0.0,75,0.00,CLR,OVC,0.00,WeatherDisplay:10.37,2013-05-01 08:22:00,
2013-05-01 04:27:00,55.0,47.2,29.44,ESE,112,0.0,0.0,75,0.00,CLR,OVC,0.00,WeatherDisplay:10.37,2013-05-01 08:27:00,
2013-05-01 04:32:00,55.0,46.9,29.44,ESE,112,0.0,0.0,74,0.00,CLR,OVC,0.00,WeatherDisplay:10.37,2013-05-01 08:32:00,
2013-05-01 04:37:00,55.0,47.2,29.44,ESE,112,0.0,0.0,75,0.00,CLR,OVC,0.00,WeatherDisplay:10.37,2013-05-01 08:37:00,
2013-05-01 04:42:00,55.0,46.9,29.43,SE,135,0.0,0.0,74,0.00,CLR,OVC,0.00,WeatherDisplay:10.37,2013-05-01 08:42:00,
2013-05-01 04:47:00,55.0,46.9,29.43,ENE,67,0.0,0.0,74,0.00,CLR,OVC,0.00,WeatherDisplay:10.37,2013-05-01 08:47:00,
2013-05-01 04:52:00,55.0,46.9,29.44,East,90,0.0,0.0,74,0.00,CLR,OVC,0.00,WeatherDisplay:10.37,2013-05-01 08:52:00,
2013-05-01 04:57:00,55.0,46.9,29.44,NE,45,0.0,0.0,74,0.00,CLR,OVC,0.00,WeatherDisplay:10.37,2013-05-01 08:57:00,
2013-05-01 05:02:00,55.0,46.5,29.44,NE,45,0.0,0.0,73,0.00,CLR,OVC,0.00,WeatherDisplay:10.37,2013-05-01 09:02:00,
2013-05-01 05:07:00,55.0,46.5,29.44,SE,135,3.5,0.0,73,0.00,CLR,OVC,0.00,WeatherDisplay:10.37,2013-05-01 09:07:00,
2013-05-01 05:12:00,55.0,46.1,29.44,East,90,0.0,0.0,72,0.00,CLR,OVC,0.00,WeatherDisplay:10.37,2013-05-01 09:12:00,
2013-05-01 05:17:00,55.0,46.1,29.44,ENE,67,0.0,0.0,72,0.00,CLR,OVC,0.00,WeatherDisplay:10.37,2013-05-01 09:17:00,
2013-05-01 05:22:00,55.0,45.8,29.43,ESE,112,0.0,0.0,71,0.00,CLR,OVC,0.00,WeatherDisplay:10.37,2013-05-01 09:22:00,
2013-05-01 05:27:00,55.0,45.8,29.43,NE,45,0.0,0.0,71,0.00,CLR,OVC,0.00,WeatherDisplay:10.37,2013-05-01 09:27:00,
2013-05-01 05:32:00,55.0,45.8,29.44,ENE,67,0.0,0.0,71,0.00,CLR,OVC,0.00,WeatherDisplay:10.37,2013-05-01 09:32:00,
2013-05-01 05:37:00,55.0,45.8,29.44,East,90,0.0,0.0,71,0.00,CLR,OVC,0.00,WeatherDisplay:10.37,2013-05-01 09:37:00,
2013-05-01 05:42:00,55.0,45.8,29.44,East,90,1.0,0.0,71,0.00,CLR,OVC,0.00,WeatherDisplay:10.37,2013-05-01 09:42:00,
2013-05-01 05:47:00,55.0,45.8,29.44,East,90,0.0,0.0,71,0.00,CLR,OVC,0.00,WeatherDisplay:10.37,2013-05-01 09:47:00,
2013-05-01 05:52:00,55.0,45.8,29.44,East,90,3.5,3.5,71,0.00,CLR,OVC,0.00,WeatherDisplay:10.37,2013-05-01 09:52:00,
2013-05-01 05:57:00,55.0,45.8,29.44,NNE,22,0.0,0.0,71,0.00,CLR,OVC,0.00,WeatherDisplay:10.37,2013-05-01 09:57:00,
2013-05-01 06:02:00,55.0,45.8,29.45,ENE,67,1.2,1.2,71,0.00,CLR,OVC,0.00,WeatherDisplay:10.37,2013-05-01 10:02:00,
2013-05-01 06:07:00,55.0,45.8,29.45,ESE,112,0.0,0.0,71,0.00,CLR,OVC,0.00,WeatherDisplay:10.37,2013-05-01 10:07:00,
2013-05-01 06:12:00,55.0,45.8,29.45,SE,135,0.0,0.0,71,0.00,CLR,OVC,0.00,WeatherDisplay:10.37,2013-05-01 10:12:00,
2013-05-01 06:17:00,55.0,45.8,29.45,SE,135,0.0,0.0,71,0.00,CLR,OVC,0.00,WeatherDisplay:10.37,2013-05-01 10:17:00,
2013-05-01 06:22:00,55.0,45.8,29.45,ENE,67,0.0,0.0,71,0.00,CLR,OVC,0.00,WeatherDisplay:10.37,2013-05-01 10:22:00,
2013-05-01 06:27:00,55.0,45.8,29.45,ENE,67,0.0,0.0,71,0.00,CLR,OVC,0.00,WeatherDisplay:10.37,2013-05-01 10:27:00,
2013-05-01 06:32:00,55.0,45.8,29.45,SE,135,1.2,0.0,71,0.00,CLR,OVC,0.00,WeatherDisplay:10.37,2013-05-01 10:32:00,
2013-05-01 06:37:00,55.0,45.8,29.45,ENE,67,2.3,2.3,71,0.00,CLR,OVC,0.00,WeatherDisplay:10.37,2013-05-01 10:37:00,
2013-05-01 06:42:00,55.0,45.8,29.46,ENE,67,0.0,0.0,71,0.00,CLR,OVC,0.00,WeatherDisplay:10.37,2013-05-01 10:42:00,
2013-05-01 06:47:00,55.0,45.8,29.46,North,360,1.2,0.0,71,0.00,CLR,OVC,0.00,WeatherDisplay:10.37,2013-05-01 10:47:00,
2013-05-01 06:52:00,55.0,45.8,29.47,NE,45,0.0,0.0,71,0.00,CLR,OVC,0.00,WeatherDisplay:10.37,2013-05-01 10:52:00,
2013-05-01 06:57:00,55.0,45.8,29.47,ENE,67,0.0,0.0,71,0.00,CLR,OVC,0.00,WeatherDisplay:10.37,2013-05-01 10:57:00,
2013-05-01 07:02:00,55.0,45.8,29.47,East,90,0.0,0.0,71,0.00,CLR,OVC,0.00,WeatherDisplay:10.37,2013-05-01 11:02:00,
2013-05-01 07:07:00,55.0,45.8,29.47,ENE,67,0.0,0.0,71,0.00,CLR,OVC,0.00,WeatherDisplay:10.37,2013-05-01 11:07:00,
2013-05-01 07:12:00,55.0,45.8,29.48,NE,45,0.0,0.0,71,0.00,CLR,OVC,0.00,WeatherDisplay:10.37,2013-05-01 11:12:00,
2013-05-01 07:17:00,55.0,45.8,29.48,ESE,112,1.0,1.0,71,0.00,CLR,OVC,0.00,WeatherDisplay:10.37,2013-05-01 11:17:00,
2013-05-01 07:22:00,55.0,45.8,29.48,ENE,67,0.0,0.0,71,0.00,CLR,OVC,0.00,WeatherDisplay:10.37,2013-05-01 11:22:00,
2013-05-01 07:27:00,55.0,45.4,29.48,ESE,112,2.3,2.3,70,0.00,CLR,OVC,0.00,WeatherDisplay:10.37,2013-05-01 11:27:00,
2013-05-01 07:32:00,55.0,45.4,29.48,East,90,0.0,0.3,70,0.00,CLR,OVC,0.00,WeatherDisplay:10.37,2013-05-01 11:32:00,
2013-05-01 07:37:00,55.0,45.4,29.48,ENE,67,0.0,0.0,70,0.00,CLR,OVC,0.00,WeatherDisplay:10.37,2013-05-01 11:37:00,
2013-05-01 07:42:00,55.0,45.4,29.49,ENE,67,2.3,0.0,70,0.00,CLR,OVC,0.00,WeatherDisplay:10.37,2013-05-01 11:42:00,
2013-05-01 07:48:00,55.0,45.4,29.49,NE,45,0.0,0.0,70,0.00,CLR,OVC,0.00,WeatherDisplay:10.37,2013-05-01 11:48:00,
2013-05-01 07:53:00,55.0,45.0,29.49,ESE,112,0.0,0.0,69,0.00,CLR,OVC,0.00,WeatherDisplay:10.37,2013-05-01 11:53:00,
2013-05-01 07:58:00,55.0,45.0,29.49,NNE,22,0.0,0.0,69,0.00,CLR,OVC,0.00,WeatherDisplay:10.37,2013-05-01 11:58:00,
2013-05-01 08:03:00,56.0,46.0,29.49,NE,45,0.0,0.0,69,0.00,CLR,OVC,0.00,WeatherDisplay:10.37,2013-05-01 12:03:00,
2013-05-01 08:08:00,56.0,46.7,29.49,NE,45,0.0,0.0,71,0.00,CLR,OVC,0.00,WeatherDisplay:10.37,2013-05-01 12:08:00,
2013-05-01 08:13:00,56.0,46.7,29.49,East,90,0.0,0.0,71,0.00,CLR,OVC,0.00,WeatherDisplay:10.37,2013-05-01 12:13:00,
2013-05-01 08:18:00,56.0,47.1,29.49,East,90,0.0,0.0,72,0.00,CLR,OVC,0.00,WeatherDisplay:10.37,2013-05-01 12:18:00,
2013-05-01 08:23:00,56.0,47.8,29.50,SE,135,1.2,0.0,74,0.00,CLR,OVC,0.00,WeatherDisplay:10.37,2013-05-01 12:23:00,
2013-05-01 08:28:00,56.0,47.8,29.50,NNE,22,0.0,0.0,74,0.00,CLR,OVC,0.00,WeatherDisplay:10.37,2013-05-01 12:28:00,
2013-05-01 08:33:00,56.0,48.2,29.50,ESE,112,0.0,0.0,75,0.00,CLR,OVC,0.00,WeatherDisplay:10.37,2013-05-01 12:33:00,
2013-05-01 08:38:00,56.0,48.5,29.50,ENE,67,0.0,0.0,76,0.00,CLR,OVC,0.00,WeatherDisplay:10.37,2013-05-01 12:38:00,
2013-05-01 08:43:00,56.0,48.5,29.50,NNE,22,0.0,0.0,76,0.00,CLR,OVC,0.00,WeatherDisplay:10.37,2013-05-01 12:43:00,
2013-05-01 08:48:00,56.0,49.2,29.51,ESE,112,1.2,0.0,78,0.00,CLR,OVC,0.00,WeatherDisplay:10.37,2013-05-01 12:48:00,
2013-05-01 08:53:00,56.0,47.8,29.51,North,360,0.0,0.0,74,0.00,CLR,OVC,0.00,WeatherDisplay:10.37,2013-05-01 12:53:00,
2013-05-01 08:58:00,56.0,48.5,29.51,NNW,337,1.2,0.0,76,0.00,CLR,OVC,0.00,WeatherDisplay:10.37,2013-05-01 12:58:00,
2013-05-01 09:03:00,55.0,46.9,29.51,ENE,67,0.0,0.0,74,0.00,CLR,OVC,0.00,WeatherDisplay:10.37,2013-05-01 13:03:00,
2013-05-01 09:08:00,56.0,48.5,29.51,NE,45,0.0,0.0,76,0.00,CLR,OVC,0.00,WeatherDisplay:10.37,2013-05-01 13:08:00,
2013-05-01 09:13:00,55.0,46.5,29.51,NNW,337,0.0,0.0,73,0.00,CLR,OVC,0.00,WeatherDisplay:10.37,2013-05-01 13:13:00,
2013-05-01 09:18:00,56.0,48.5,29.51,SSE,157,0.0,0.0,76,0.00,CLR,OVC,0.00,WeatherDisplay:10.37,2013-05-01 13:18:00,
2013-05-01 09:23:00,56.0,47.5,29.51,NNE,22,0.0,0.0,73,0.00,CLR,OVC,0.00,WeatherDisplay:10.37,2013-05-01 13:23:00,
2013-05-01 09:28:00,56.0,48.2,29.51,ESE,112,0.0,0.0,75,0.00,CLR,OVC,0.00,WeatherDisplay:10.37,2013-05-01 13:28:00,
2013-05-01 09:33:00,56.0,47.5,29.51,North,360,0.0,0.0,73,0.00,CLR,OVC,0.00,WeatherDisplay:10.37,2013-05-01 13:33:00,
2013-05-01 09:38:00,56.0,49.6,29.52,East,90,1.2,1.2,79,0.00,CLR,OVC,0.00,WeatherDisplay:10.37,2013-05-01 13:38:00,
2013-05-01 09:43:00,56.0,48.5,29.52,SE,135,3.5,3.5,76,0.00,CLR,OVC,0.00,WeatherDisplay:10.37,2013-05-01 13:43:00,
2013-05-01 09:48:00,57.0,50.5,29.51,ENE,67,0.0,0.0,79,0.00,CLR,OVC,0.00,WeatherDisplay:10.37,2013-05-01 13:48:00,
2013-05-01 09:53:00,57.0,51.2,29.51,ESE,112,0.0,0.0,81,0.00,CLR,OVC,0.00,WeatherDisplay:10.37,2013-05-01 13:53:00,
2013-05-01 09:58:00,57.0,53.5,29.52,ESE,112,1.2,1.2,88,0.00,CLR,OVC,0.00,WeatherDisplay:10.37,2013-05-01 13:58:00,
2013-05-01 10:03:00,57.0,54.7,29.52,ENE,67,1.2,1.2,92,0.00,CLR,OVC,0.00,WeatherDisplay:10.37,2013-05-01 14:03:00,
2013-05-01 10:08:00,57.0,54.7,29.53,NE,45,0.0,0.0,92,0.00,CLR,OVC,0.00,WeatherDisplay:10.37,2013-05-01 14:08:00,
2013-05-01 10:13:00,57.0,53.2,29.53,NE,45,0.0,0.0,87,0.00,CLR,OVC,0.00,WeatherDisplay:10.37,2013-05-01 14:13:00,
2013-05-01 10:18:00,57.0,53.8,29.53,NNE,22,0.0,0.0,89,0.00,CLR,OVC,0.00,WeatherDisplay:10.37,2013-05-01 14:18:00,
2013-05-01 10:23:00,57.0,53.5,29.53,ESE,112,1.2,1.2,88,0.00,CLR,OVC,0.00,WeatherDisplay:10.37,2013-05-01 14:23:00,
2013-05-01 10:28:00,57.0,54.1,29.53,North,360,1.2,1.2,90,0.00,CLR,OVC,0.00,WeatherDisplay:10.37,2013-05-01 14:28:00,
2013-05-01 10:33:00,57.0,53.5,29.53,North,360,0.0,0.0,88,0.00,CLR,OVC,0.00,WeatherDisplay:10.37,2013-05-01 14:33:00,
2013-05-01 10:38:00,58.0,55.4,29.53,North,360,1.2,1.2,91,0.00,CLR,OVC,0.00,WeatherDisplay:10.37,2013-05-01 14:38:00,
2013-05-01 10:43:00,57.0,54.4,29.53,NNW,337,0.0,0.0,91,0.00,CLR,OVC,0.00,WeatherDisplay:10.37,2013-05-01 14:43:00,
2013-05-01 10:48:00,58.0,56.0,29.53,ENE,67,0.0,0.0,93,0.00,CLR,OVC,0.00,WeatherDisplay:10.37,2013-05-01 14:48:00,
2013-05-01 10:53:00,57.0,53.5,29.53,NNE,22,1.2,1.2,88,0.00,CLR,OVC,0.00,WeatherDisplay:10.37,2013-05-01 14:53:00,
2013-05-01 10:58:00,58.0,55.4,29.53,ESE,112,1.2,1.2,91,0.00,CLR,OVC,0.00,WeatherDisplay:10.37,2013-05-01 14:58:00,
2013-05-01 11:03:00,57.0,53.2,29.53,ESE,112,1.0,1.0,87,0.00,CLR,OVC,0.00,WeatherDisplay:10.37,2013-05-01 15:03:00,
2013-05-01 11:08:00,57.0,53.2,29.53,East,90,1.2,1.2,87,0.00,CLR,OVC,0.00,WeatherDisplay:10.37,2013-05-01 15:08:00,
2013-05-01 11:13:00,57.0,53.5,29.53,SSE,157,5.0,5.0,88,0.00,CLR,OVC,0.00,WeatherDisplay:10.37,2013-05-01 15:13:00,
2013-05-01 11:18:00,57.0,53.2,29.53,ESE,112,1.2,0.0,87,0.00,CLR,OVC,0.00,WeatherDisplay:10.37,2013-05-01 15:18:00,
2013-05-01 11:23:00,57.0,51.6,29.53,ENE,67,0.0,0.0,82,0.00,CLR,OVC,0.00,WeatherDisplay:10.37,2013-05-01 15:23:00,
2013-05-01 11:28:00,57.0,51.9,29.53,North,360,1.2,0.0,83,0.00,CLR,OVC,0.00,WeatherDisplay:10.37,2013-05-01 15:28:00,
2013-05-01 11:33:00,57.0,51.2,29.53,East,90,1.2,1.2,81,0.00,CLR,OVC,0.00,WeatherDisplay:10.37,2013-05-01 15:33:00,
2013-05-01 11:38:00,57.0,51.6,29.53,North,360,0.0,0.1,82,0.00,CLR,OVC,0.00,WeatherDisplay:10.37,2013-05-01 15:38:00,
2013-05-01 11:43:00,58.0,51.5,29.53,ENE,67,1.2,1.2,79,0.00,CLR,OVC,0.00,WeatherDisplay:10.37,2013-05-01 15:43:00,
2013-05-01 11:48:00,58.0,52.9,29.53,NE,45,1.2,1.2,83,0.00,CLR,OVC,0.00,WeatherDisplay:10.37,2013-05-01 15:48:00,
2013-05-01 11:53:00,58.0,51.9,29.53,ENE,67,0.0,0.0,80,0.00,CLR,OVC,0.00,WeatherDisplay:10.37,2013-05-01 15:53:00,
2013-05-01 11:58:00,58.0,52.9,29.53,SE,135,2.3,2.3,83,0.00,CLR,OVC,0.00,WeatherDisplay:10.37,2013-05-01 15:58:00,
2013-05-01 12:03:00,57.0,50.2,29.53,West,270,0.0,0.0,78,0.00,CLR,OVC,0.00,WeatherDisplay:10.37,2013-05-01 16:03:00,
2013-05-01 12:08:00,58.0,53.8,29.53,ESE,112,1.2,1.2,86,0.00,CLR,OVC,0.00,WeatherDisplay:10.37,2013-05-01 16:08:00,
2013-05-01 12:13:00,58.0,52.2,29.53,ESE,112,0.0,0.0,81,0.00,CLR,OVC,0.00,WeatherDisplay:10.37,2013-05-01 16:13:00,
2013-05-01 12:18:00,58.0,53.8,29.53,ENE,67,2.3,2.3,86,0.00,CLR,OVC,0.00,WeatherDisplay:10.37,2013-05-01 16:18:00,
2013-05-01 12:23:00,58.0,56.0,29.53,SE,135,2.0,2.0,93,0.00,CLR,OVC,0.00,WeatherDisplay:10.37,2013-05-01 16:23:00,
2013-05-01 12:28:00,59.0,57.3,29.53,NNE,22,1.2,1.2,94,0.00,CLR,OVC,0.00,WeatherDisplay:10.37,2013-05-01 16:28:00,
2013-05-01 12:33:00,58.0,56.0,29.53,East,90,0.0,0.1,93,0.00,CLR,OVC,0.00,WeatherDisplay:10.37,2013-05-01 16:33:00,
2013-05-01 12:38:00,58.0,56.3,29.53,ESE,112,0.0,0.0,94,0.00,CLR,OVC,0.00,WeatherDisplay:10.37,2013-05-01 16:38:00,
2013-05-01 12:43:00,58.0,56.0,29.53,ENE,67,0.0,0.0,93,0.00,CLR,OVC,0.00,WeatherDisplay:10.37,2013-05-01 16:43:00,
2013-05-01 12:48:00,58.0,56.3,29.53,SE,135,0.0,0.2,94,0.00,CLR,OVC,0.00,WeatherDisplay:10.37,2013-05-01 16:48:00,
2013-05-01 12:53:00,58.0,55.1,29.53,SE,135,0.0,0.0,90,0.00,CLR,OVC,0.00,WeatherDisplay:10.37,2013-05-01 16:53:00,
2013-05-01 12:58:00,58.0,55.4,29.53,ESE,112,1.2,1.2,91,0.00,CLR,OVC,0.00,WeatherDisplay:10.37,2013-05-01 16:58:00,
2013-05-01 13:03:00,58.0,54.5,29.53,ESE,112,0.0,0.0,88,0.00,CLR,OVC,0.00,WeatherDisplay:10.37,2013-05-01 17:03:00,
2013-05-01 13:08:00,58.0,54.5,29.53,ESE,112,0.0,0.1,88,0.00,CLR,OVC,0.00,WeatherDisplay:10.37,2013-05-01 17:08:00,
2013-05-01 13:13:00,58.0,53.2,29.53,ESE,112,0.0,0.0,84,0.00,CLR,OVC,0.00,WeatherDisplay:10.37,2013-05-01 17:13:00,
2013-05-01 13:18:00,58.0,53.8,29.53,East,90,0.0,0.0,86,0.00,CLR,OVC,0.00,WeatherDisplay:10.37,2013-05-01 17:18:00,
2013-05-01 13:23:00,58.0,52.2,29.53,ENE,67,0.0,0.0,81,0.00,CLR,OVC,0.00,WeatherDisplay:10.37,2013-05-01 17:23:00,
2013-05-01 13:28:00,58.0,53.2,29.53,ENE,67,0.0,0.0,84,0.00,CLR,OVC,0.00,WeatherDisplay:10.37,2013-05-01 17:28:00,
2013-05-01 13:33:00,58.0,52.2,29.53,ESE,112,1.0,0.0,81,0.00,CLR,OVC,0.00,WeatherDisplay:10.37,2013-05-01 17:33:00,
2013-05-01 13:38:00,58.0,53.2,29.54,ESE,112,0.0,0.0,84,0.00,CLR,OVC,0.00,WeatherDisplay:10.37,2013-05-01 17:38:00,
2013-05-01 13:43:00,58.0,51.5,29.54,ESE,112,0.0,0.0,79,0.00,CLR,OVC,0.00,WeatherDisplay:10.37,2013-05-01 17:43:00,
2013-05-01 13:49:00,58.0,52.9,29.54,ESE,112,0.0,0.0,83,0.00,CLR,OVC,0.00,WeatherDisplay:10.37,2013-05-01 17:49:00,
2013-05-01 13:54:00,58.0,52.9,29.54,ESE,112,0.0,0.0,83,0.00,CLR,OVC,0.00,WeatherDisplay:10.37,2013-05-01 17:54:00,
2013-05-01 13:59:00,58.0,53.2,29.54,ESE,112,0.0,0.0,84,0.00,CLR,OVC,0.00,WeatherDisplay:10.37,2013-05-01 17:59:00,
2013-05-01 14:04:00,58.0,52.2,29.54,ESE,112,0.0,0.0,81,0.00,CLR,OVC,0.00,WeatherDisplay:10.37,2013-05-01 18:04:00,
2013-05-01 14:09:00,59.0,54.2,29.53,ESE,112,0.0,0.0,84,0.00,CLR,OVC,0.00,WeatherDisplay:10.37,2013-05-01 18:09:00,
2013-05-01 14:14:00,58.0,51.5,29.53,ESE,112,0.0,0.0,79,0.00,CLR,OVC,0.00,WeatherDisplay:10.37,2013-05-01 18:14:00,
2013-05-01 14:19:00,59.0,54.2,29.53,ESE,112,0.0,0.0,84,0.01,RA,OVC,0.01,WeatherDisplay:10.37,2013-05-01 18:19:00,
2013-05-01 14:24:00,59.0,52.1,29.53,NW,315,0.0,0.0,78,0.01,RA,OVC,0.01,WeatherDisplay:10.37,2013-05-01 18:24:00,
2013-05-01 14:29:00,59.0,50.7,29.52,ENE,67,0.0,0.0,74,0.01,,OVC,0.01,WeatherDisplay:10.37,2013-05-01 18:29:00,
2013-05-01 14:34:00,59.0,50.7,29.52,ESE,112,1.2,0.0,74,0.01,CLR,OVC,0.01,WeatherDisplay:10.37,2013-05-01 18:34:00,
2013-05-01 14:39:00,59.0,52.8,29.52,East,90,0.0,0.0,80,0.01,CLR,OVC,0.01,WeatherDisplay:10.37,2013-05-01 18:39:00,
2013-05-01 14:44:00,59.0,51.4,29.52,NNE,22,0.0,0.0,76,0.01,CLR,OVC,0.01,WeatherDisplay:10.37,2013-05-01 18:44:00,
2013-05-01 14:49:00,60.0,55.2,29.52,ESE,112,2.3,0.0,84,0.01,CLR,OVC,0.01,WeatherDisplay:10.37,2013-05-01 18:49:00,
2013-05-01 14:54:00,59.0,52.5,29.52,ESE,112,0.0,0.0,79,0.01,CLR,OVC,0.01,WeatherDisplay:10.37,2013-05-01 18:54:00,
2013-05-01 14:59:00,59.0,52.8,29.51,NE,45,0.0,0.0,80,0.01,CLR,OVC,0.01,WeatherDisplay:10.37,2013-05-01 18:59:00,
2013-05-01 15:04:00,59.0,52.5,29.51,NNE,22,2.0,0.0,79,0.01,CLR,OVC,0.01,WeatherDisplay:10.37,2013-05-01 19:04:00,
2013-05-01 15:09:00,59.0,53.5,29.52,East,90,0.0,0.0,82,0.01,CLR,OVC,0.01,WeatherDisplay:10.37,2013-05-01 19:09:00,
2013-05-01 15:14:00,59.0,52.1,29.52,SE,135,0.0,0.0,78,0.01,CLR,OVC,0.01,WeatherDisplay:10.37,2013-05-01 19:14:00,
2013-05-01 15:19:00,59.0,51.4,29.52,ESE,112,0.0,0.0,76,0.00,CLR,OVC,0.01,WeatherDisplay:10.37,2013-05-01 19:19:00,
2013-05-01 15:24:00,59.0,50.7,29.52,NE,45,0.0,0.0,74,0.00,CLR,OVC,0.01,WeatherDisplay:10.37,2013-05-01 19:24:00,
2013-05-01 15:29:00,59.0,51.4,29.52,ENE,67,0.0,0.0,76,0.00,CLR,OVC,0.01,WeatherDisplay:10.37,2013-05-01 19:29:00,
2013-05-01 15:34:00,59.0,51.8,29.52,SE,135,1.2,1.2,77,0.00,CLR,OVC,0.01,WeatherDisplay:10.37,2013-05-01 19:34:00,
2013-05-01 15:39:00,59.0,51.1,29.51,ENE,67,0.0,0.0,75,0.00,CLR,OVC,0.01,WeatherDisplay:10.37,2013-05-01 19:39:00,
2013-05-01 15:44:00,59.0,51.4,29.51,ESE,112,1.2,1.2,76,0.00,CLR,OVC,0.01,WeatherDisplay:10.37,2013-05-01 19:44:00,
2013-05-01 15:49:00,59.0,50.4,29.51,ENE,67,0.0,0.0,73,0.00,CLR,OVC,0.01,WeatherDisplay:10.37,2013-05-01 19:49:00,
2013-05-01 15:54:00,58.0,49.8,29.51,ENE,67,1.2,1.2,74,0.00,CLR,OVC,0.01,WeatherDisplay:10.37,2013-05-01 19:54:00,
2013-05-01 15:59:00,59.0,50.7,29.51,ESE,112,3.5,3.5,74,0.00,CLR,OVC,0.01,WeatherDisplay:10.37,2013-05-01 19:59:00,
2013-05-01 16:04:00,59.0,53.5,29.51,ENE,67,3.5,3.5,82,0.00,CLR,OVC,0.01,WeatherDisplay:10.37,2013-05-01 20:04:00,
2013-05-01 16:09:00,59.0,56.1,29.51,ESE,112,2.3,2.3,90,0.00,CLR,OVC,0.01,WeatherDisplay:10.37,2013-05-01 20:09:00,
2013-05-01 16:14:00,59.0,56.1,29.51,East,90,1.2,0.0,90,0.00,CLR,OVC,0.01,WeatherDisplay:10.37,2013-05-01 20:14:00,
2013-05-01 16:19:00,59.0,57.3,29.52,SE,135,3.0,3.0,94,0.00,CLR,OVC,0.01,WeatherDisplay:10.37,2013-05-01 20:19:00,
2013-05-01 16:24:00,59.0,56.4,29.52,ENE,67,1.2,1.2,91,0.00,CLR,OVC,0.01,WeatherDisplay:10.37,2013-05-01 20:24:00,
2013-05-01 16:29:00,58.0,55.4,29.53,ENE,67,2.3,2.3,91,0.00,CLR,OVC,0.01,WeatherDisplay:10.37,2013-05-01 20:29:00,
2013-05-01 16:34:00,58.0,54.2,29.53,ENE,67,2.3,2.3,87,0.00,CLR,OVC,0.01,WeatherDisplay:10.37,2013-05-01 20:34:00,
2013-05-01 16:39:00,58.0,53.2,29.53,ENE,67,0.0,0.0,84,0.00,CLR,OVC,0.01,WeatherDisplay:10.37,2013-05-01 20:39:00,
2013-05-01 16:44:00,57.0,51.9,29.53,ENE,67,1.2,1.2,83,0.00,CLR,OVC,0.01,WeatherDisplay:10.37,2013-05-01 20:44:00,
2013-05-01 16:49:00,57.0,51.2,29.53,East,90,1.2,1.2,81,0.00,CLR,OVC,0.01,WeatherDisplay:10.37,2013-05-01 20:49:00,
2013-05-01 16:54:00,57.0,51.6,29.53,ENE,67,1.2,1.2,82,0.00,CLR,OVC,0.01,WeatherDisplay:10.37,2013-05-01 20:54:00,
2013-05-01 16:59:00,57.0,52.9,29.53,East,90,1.2,1.2,86,0.00,CLR,OVC,0.01,WeatherDisplay:10.37,2013-05-01 20:59:00,
2013-05-01 17:04:00,57.0,53.8,29.53,East,90,2.3,2.3,89,0.00,CLR,OVC,0.01,WeatherDisplay:10.37,2013-05-01 21:04:00,
2013-05-01 17:09:00,56.0,52.8,29.54,ESE,112,0.0,0.0,89,0.00,CLR,OVC,0.01,WeatherDisplay:10.37,2013-05-01 21:09:00,
2013-05-01 17:14:00,56.0,53.4,29.54,ESE,112,0.0,0.0,91,0.00,CLR,OVC,0.01,WeatherDisplay:10.37,2013-05-01 21:14:00,
2013-05-01 17:19:00,56.0,53.4,29.53,ESE,112,0.0,0.0,91,0.00,CLR,OVC,0.01,WeatherDisplay:10.37,2013-05-01 21:19:00,
2013-05-01 17:24:00,56.0,54.3,29.53,NNE,22,1.2,1.2,94,0.00,CLR,OVC,0.01,WeatherDisplay:10.37,2013-05-01 21:24:00,
2013-05-01 17:29:00,56.0,54.6,29.54,ESE,112,2.3,2.3,95,0.00,CLR,OVC,0.01,WeatherDisplay:10.37,2013-05-01 21:29:00,
2013-05-01 17:34:00,56.0,54.3,29.54,SSE,157,0.0,0.0,94,0.00,CLR,OVC,0.01,WeatherDisplay:10.37,2013-05-01 21:34:00,
2013-05-01 17:39:00,57.0,55.3,29.54,East,90,0.0,0.0,94,0.00,CLR,OVC,0.01,WeatherDisplay:10.37,2013-05-01 21:39:00,
2013-05-01 17:44:00,57.0,55.3,29.54,East,90,0.0,0.0,94,0.00,CLR,OVC,0.01,WeatherDisplay:10.37,2013-05-01 21:44:00,
2013-05-01 17:49:00,57.0,55.9,29.54,ENE,67,0.0,0.0,96,0.00,CLR,OVC,0.01,WeatherDisplay:10.37,2013-05-01 21:49:00,
2013-05-01 17:54:00,57.0,55.6,29.54,ENE,67,0.0,0.1,95,0.00,CLR,OVC,0.01,WeatherDisplay:10.37,2013-05-01 21:54:00,
2013-05-01 17:59:00,57.0,55.9,29.54,East,90,1.2,1.2,96,0.00,CLR,OVC,0.01,WeatherDisplay:10.37,2013-05-01 21:59:00,
2013-05-01 18:04:00,57.0,55.9,29.54,ESE,112,0.0,0.0,96,0.00,CLR,OVC,0.01,WeatherDisplay:10.37,2013-05-01 22:04:00,
2013-05-01 18:09:00,57.0,55.9,29.53,East,90,0.0,0.0,96,0.00,CLR,OVC,0.01,WeatherDisplay:10.37,2013-05-01 22:09:00,
2013-05-01 18:14:00,57.0,55.6,29.53,East,90,0.0,0.0,95,0.00,CLR,OVC,0.01,WeatherDisplay:10.37,2013-05-01 22:14:00,
2013-05-01 18:19:00,57.0,55.9,29.53,SE,135,1.2,0.0,96,0.00,CLR,OVC,0.01,WeatherDisplay:10.37,2013-05-01 22:19:00,
2013-05-01 18:24:00,57.0,56.2,29.53,SE,135,0.0,0.0,97,0.00,CLR,OVC,0.01,WeatherDisplay:10.37,2013-05-01 22:24:00,
2013-05-01 18:29:00,57.0,56.2,29.53,SE,135,0.0,0.0,97,0.00,CLR,OVC,0.01,WeatherDisplay:10.37,2013-05-01 22:29:00,
2013-05-01 18:34:00,57.0,56.2,29.53,ENE,67,0.0,0.1,97,0.00,CLR,OVC,0.01,WeatherDisplay:10.37,2013-05-01 22:34:00,
2013-05-01 18:39:00,57.0,55.9,29.53,SE,135,0.0,0.0,96,0.00,CLR,OVC,0.01,WeatherDisplay:10.37,2013-05-01 22:39:00,
2013-05-01 18:44:00,57.0,55.9,29.53,SE,135,0.0,0.0,96,0.00,CLR,OVC,0.01,WeatherDisplay:10.37,2013-05-01 22:44:00,
2013-05-01 18:49:00,57.0,55.9,29.53,ENE,67,0.0,0.0,96,0.00,CLR,OVC,0.01,WeatherDisplay:10.37,2013-05-01 22:49:00,
2013-05-01 18:54:00,56.0,54.9,29.53,NE,45,1.2,0.0,96,0.00,CLR,OVC,0.01,WeatherDisplay:10.37,2013-05-01 22:54:00,
2013-05-01 18:59:00,56.0,54.9,29.53,ESE,112,1.2,0.0,96,0.00,CLR,OVC,0.01,WeatherDisplay:10.37,2013-05-01 22:59:00,
2013-05-01 19:04:00,56.0,54.9,29.53,ESE,112,0.0,0.0,96,0.00,CLR,OVC,0.01,WeatherDisplay:10.37,2013-05-01 23:04:00,
2013-05-01 19:10:00,56.0,54.6,29.54,ESE,112,0.0,0.0,95,0.00,CLR,OVC,0.01,WeatherDisplay:10.37,2013-05-01 23:10:00,
2013-05-01 19:15:00,56.0,54.3,29.54,ESE,112,0.0,0.0,94,0.00,CLR,OVC,0.01,WeatherDisplay:10.37,2013-05-01 23:15:00,
2013-05-01 19:20:00,56.0,54.6,29.54,ESE,112,0.0,0.0,95,0.00,CLR,OVC,0.01,WeatherDisplay:10.37,2013-05-01 23:20:00,
2013-05-01 19:25:00,56.0,54.3,29.54,ENE,67,0.0,0.0,94,0.00,CLR,OVC,0.01,WeatherDisplay:10.37,2013-05-01 23:25:00,
2013-05-01 19:30:00,56.0,54.6,29.54,ENE,67,0.0,0.0,95,0.00,CLR,OVC,0.01,WeatherDisplay:10.37,2013-05-01 23:30:00,
2013-05-01 19:35:00,56.0,54.9,29.54,South,180,4.0,4.0,96,0.00,CLR,OVC,0.01,WeatherDisplay:10.37,2013-05-01 23:35:00,
2013-05-01 19:40:00,56.0,54.9,29.54,ESE,112,2.3,0.0,96,0.00,CLR,OVC,0.01,WeatherDisplay:10.37,2013-05-01 23:40:00,
2013-05-01 19:45:00,56.0,54.9,29.54,ESE,112,0.0,0.0,96,0.00,CLR,OVC,0.01,WeatherDisplay:10.37,2013-05-01 23:45:00,
2013-05-01 19:50:00,56.0,54.9,29.53,ESE,112,0.0,0.0,96,0.00,CLR,OVC,0.01,WeatherDisplay:10.37,2013-05-01 23:50:00,
2013-05-01 19:55:00,56.0,54.3,29.53,SE,135,2.0,2.0,94,0.00,CLR,OVC,0.01,WeatherDisplay:10.37,2013-05-01 23:55:00,
2013-05-01 20:00:00,56.0,54.9,29.53,NE,45,0.0,0.0,96,0.00,CLR,OVC,0.01,WeatherDisplay:10.37,2013-05-02 00:00:00,
2013-05-01 20:05:00,56.0,54.9,29.53,ENE,67,3.5,0.0,96,0.00,CLR,OVC,0.01,WeatherDisplay:10.37,2013-05-02 00:05:00,
2013-05-01 20:10:00,56.0,54.9,29.53,ENE,67,0.0,0.0,96,0.00,CLR,OVC,0.01,WeatherDisplay:10.37,2013-05-02 00:10:00,
2013-05-01 20:15:00,56.0,54.9,29.53,ESE,112,0.0,0.0,96,0.00,CLR,OVC,0.01,WeatherDisplay:10.37,2013-05-02 00:15:00,
2013-05-01 20:20:00,57.0,56.4,29.54,ESE,112,1.2,1.2,98,0.00,CLR,OVC,0.01,WeatherDisplay:10.37,2013-05-02 00:20:00,
2013-05-01 20:25:00,57.0,56.4,29.54,ENE,67,0.0,0.0,98,0.00,CLR,OVC,0.01,WeatherDisplay:10.37,2013-05-02 00:25:00,
2013-05-01 20:30:00,57.0,56.4,29.54,ENE,67,0.0,0.0,98,0.00,CLR,OVC,0.01,WeatherDisplay:10.37,2013-05-02 00:30:00,
2013-05-01 20:35:00,57.0,56.4,29.54,SE,135,0.0,0.0,98,0.00,CLR,OVC,0.01,WeatherDisplay:10.37,2013-05-02 00:35:00,
2013-05-01 20:40:00,57.0,56.2,29.54,ESE,112,0.0,0.0,97,0.00,CLR,OVC,0.01,WeatherDisplay:10.37,2013-05-02 00:40:00,
2013-05-01 20:45:00,57.0,56.4,29.54,ESE,112,1.2,1.2,98,0.00,CLR,OVC,0.01,WeatherDisplay:10.37,2013-05-02 00:45:00,
2013-05-01 20:50:00,57.0,56.2,29.55,SE,135,2.3,2.3,97,0.00,CLR,OVC,0.01,WeatherDisplay:10.37,2013-05-02 00:50:00,
2013-05-01 20:55:00,57.0,56.2,29.55,SE,135,0.0,0.0,97,0.00,CLR,OVC,0.01,WeatherDisplay:10.37,2013-05-02 00:55:00,
2013-05-01 21:00:00,57.0,55.9,29.55,ENE,67,0.0,0.0,96,0.00,CLR,OVC,0.01,WeatherDisplay:10.37,2013-05-02 01:00:00,
2013-05-01 21:05:00,57.0,55.9,29.55,East,90,0.0,0.0,96,0.00,CLR,OVC,0.01,WeatherDisplay:10.37,2013-05-02 01:05:00,
2013-05-01 21:10:00,57.0,55.9,29.55,ESE,112,2.3,2.3,96,0.00,CLR,OVC,0.01,WeatherDisplay:10.37,2013-05-02 01:10:00,
2013-05-01 21:15:00,57.0,55.9,29.55,ENE,67,8.1,8.1,96,0.00,CLR,OVC,0.01,WeatherDisplay:10.37,2013-05-02 01:15:00,
2013-05-01 21:20:00,57.0,55.9,29.56,ENE,67,3.5,3.5,96,0.00,CLR,OVC,0.01,WeatherDisplay:10.37,2013-05-02 01:20:00,
2013-05-01 21:25:00,57.0,55.6,29.56,ESE,112,3.5,3.5,95,0.00,CLR,OVC,0.01,WeatherDisplay:10.37,2013-05-02 01:25:00,
2013-05-01 21:30:00,57.0,55.9,29.56,ESE,112,1.2,1.2,96,0.00,CLR,OVC,0.01,WeatherDisplay:10.37,2013-05-02 01:30:00,
2013-05-01 21:35:00,57.0,55.9,29.56,East,90,0.0,0.0,96,0.00,CLR,OVC,0.01,WeatherDisplay:10.37,2013-05-02 01:35:00,
2013-05-01 21:40:00,57.0,56.2,29.56,NNE,22,3.5,3.5,97,0.00,CLR,OVC,0.01,WeatherDisplay:10.37,2013-05-02 01:40:00,
2013-05-01 21:45:00,57.0,56.2,29.56,East,90,1.2,1.2,97,0.00,CLR,OVC,0.01,WeatherDisplay:10.37,2013-05-02 01:45:00,
2013-05-01 21:50:00,57.0,56.4,29.57,East,90,1.0,0.0,98,0.00,CLR,OVC,0.01,WeatherDisplay:10.37,2013-05-02 01:50:00,
2013-05-01 21:55:00,57.0,56.7,29.57,East,90,5.8,5.8,99,0.00,CLR,OVC,0.01,WeatherDisplay:10.37,2013-05-02 01:55:00,
2013-05-01 22:00:00,57.0,56.7,29.58,ENE,67,3.5,3.5,99,0.00,CLR,OVC,0.01,WeatherDisplay:10.37,2013-05-02 02:00:00,
2013-05-01 22:05:00,57.0,56.7,29.58,ENE,67,1.2,1.2,99,0.00,CLR,OVC,0.01,WeatherDisplay:10.37,2013-05-02 02:05:00,
2013-05-01 22:10:00,57.0,56.7,29.58,East,90,0.0,0.0,99,0.00,CLR,OVC,0.01,WeatherDisplay:10.37,2013-05-02 02:10:00,
2013-05-01 22:15:00,57.0,56.4,29.58,East,90,1.2,1.2,98,0.00,CLR,OVC,0.01,WeatherDisplay:10.37,2013-05-02 02:15:00,
2013-05-01 22:20:00,57.0,56.7,29.58,ESE,112,0.0,0.0,99,0.00,CLR,OVC,0.01,WeatherDisplay:10.37,2013-05-02 02:20:00,
2013-05-01 22:25:00,56.0,55.4,29.58,NNE,22,1.2,1.2,98,0.00,CLR,OVC,0.01,WeatherDisplay:10.37,2013-05-02 02:25:00,
2013-05-01 22:30:00,56.0,55.4,29.58,ENE,67,1.2,1.2,98,0.00,CLR,OVC,0.01,WeatherDisplay:10.37,2013-05-02 02:30:00,
2013-05-01 22:35:00,56.0,55.4,29.58,East,90,1.2,0.0,98,0.00,CLR,OVC,0.01,WeatherDisplay:10.37,2013-05-02 02:35:00,
2013-05-01 22:40:00,56.0,55.4,29.58,SE,135,1.2,1.2,98,0.00,CLR,OVC,0.01,WeatherDisplay:10.37,2013-05-02 02:40:00,
2013-05-01 22:45:00,56.0,55.4,29.58,East,90,1.2,1.2,98,0.00,CLR,OVC,0.01,WeatherDisplay:10.37,2013-05-02 02:45:00,
2013-05-01 22:50:00,56.0,55.4,29.58,East,90,0.0,0.0,98,0.00,CLR,OVC,0.01,WeatherDisplay:10.37,2013-05-02 02:50:00,
2013-05-01 22:55:00,56.0,55.4,29.58,East,90,1.2,1.2,98,0.00,CLR,OVC,0.01,WeatherDisplay:10.37,2013-05-02 02:55:00,
2013-05-01 23:00:00,56.0,55.4,29.58,East,90,0.0,0.0,98,0.00,CLR,OVC,0.01,WeatherDisplay:10.37,2013-05-02 03:00:00,
2013-05-01 23:05:00,56.0,55.4,29.58,ESE,112,0.0,0.0,98,0.00,CLR,OVC,0.01,WeatherDisplay:10.37,2013-05-02 03:05:00,
2013-05-01 23:10:00,56.0,55.4,29.58,ESE,112,0.0,0.0,98,0.00,CLR,OVC,0.01,WeatherDisplay:10.37,2013-05-02 03:10:00,
2013-05-01 23:15:00,56.0,55.4,29.58,ENE,67,1.2,0.0,98,0.00,CLR,OVC,0.01,WeatherDisplay:10.37,2013-05-02 03:15:00,
2013-05-01 23:20:00,56.0,55.4,29.58,ENE,67,0.0,0.0,98,0.00,CLR,OVC,0.01,WeatherDisplay:10.37,2013-05-02 03:20:00,
2013-05-01 23:25:00,56.0,55.4,29.58,ENE,67,5.8,5.8,98,0.00,CLR,OVC,0.01,WeatherDisplay:10.37,2013-05-02 03:25:00,
2013-05-01 23:30:00,56.0,55.4,29.58,ENE,67,0.0,0.0,98,0.00,CLR,OVC,0.01,WeatherDisplay:10.37,2013-05-02 03:30:00,
2013-05-01 23:35:00,56.0,55.4,29.58,East,90,3.5,3.5,98,0.00,CLR,OVC,0.01,WeatherDisplay:10.37,2013-05-02 03:35:00,
2013-05-01 23:40:00,56.0,55.4,29.58,ESE,112,0.0,0.0,98,0.00,CLR,OVC,0.01,WeatherDisplay:10.37,2013-05-02 03:40:00,
2013-05-01 23:45:00,56.0,55.7,29.58,ENE,67,1.2,1.2,99,0.00,CLR,OVC,0.01,WeatherDisplay:10.37,2013-05-02 03:45:00,
2013-05-01 23:50:00,56.0,55.4,29.58,ESE,112,0.0,0.0,98,0.00,CLR,OVC,0.01,WeatherDisplay:10.37,2013-05-02 03:50:00,
2013-05-01 23:55:00,56.0,55.4,29.58,East,90,0.0,0.0,98,0.00,CLR,OVC,0.01,WeatherDisplay:10.37,2013-05-02 03:55:00,